Time;durP1;ratioP1;P1;durP2;ratioP2;P2;SDS_P1;SDS_P2;PMS_P1;PMS_P2;Temp;Humidity;BMP_temperature;BMP_pressure;BME280_temperature;BME280_humidity;BME280_pressure;Samples;Min_cycle;Max_cycle;Signal;HPM_P1;HPM_P2
2022/07/15 00:02:09;;;;;;;8.00;1.90;;;14.70;99.90;;;;;;4891781;29;20052;-76
2022/07/15 00:04:35;;;;;;;10.23;2.42;;;14.70;99.90;;;;;;4883664;29;20049;-76
2022/07/15 00:07:02;;;;;;;7.80;2.50;;;14.70;99.90;;;;;;4889064;29;20040;-73
2022/07/15 00:12:13;;;;;;;8.60;2.28;;;14.70;99.90;;;;;;4889728;29;20056;-74
2022/07/15 00:14:40;;;;;;;10.38;2.53;;;14.60;99.90;;;;;;4889336;29;20040;-74
2022/07/15 00:17:07;;;;;;;7.90;2.20;;;14.60;99.90;;;;;;4893251;29;20055;-78
2022/07/15 00:19:34;;;;;;;;;;;14.60;99.90;;;;;;4892985;29;20405;-75
2022/07/15 00:22:00;;;;;;;7.53;2.40;;;14.50;99.90;;;;;;4880512;29;20452;-74
2022/07/15 00:24:27;;;;;;;6.90;2.40;;;14.50;99.90;;;;;;4891837;29;20045;-75
2022/07/15 00:26:53;;;;;;;6.15;2.35;;;14.50;99.90;;;;;;4887363;29;20044;-75
2022/07/15 00:29:19;;;;;;;8.98;2.53;;;14.60;99.90;;;;;;4893159;29;20517;-75
2022/07/15 00:31:45;;;;;;;7.32;2.25;;;14.60;99.90;;;;;;4892061;29;20103;-77
2022/07/15 00:34:11;;;;;;;6.50;2.40;;;14.60;99.90;;;;;;4893332;29;20037;-76
2022/07/15 00:36:40;;;;;;;7.95;2.40;;;14.50;99.90;;;;;;4891481;29;20056;-77
2022/07/15 00:39:06;;;;;;;8.48;2.60;;;14.50;99.90;;;;;;4890932;29;20182;-73
2022/07/15 00:41:50;;;;;;;8.23;2.40;;;14.50;99.90;;;;;;4889859;29;20045;-79
2022/07/15 00:44:38;;;;;;;8.65;2.95;;;14.50;99.90;;;;;;4887869;29;20112;-75
2022/07/15 00:47:04;;;;;;;7.55;2.47;;;14.50;99.90;;;;;;4891494;29;20150;-78
2022/07/15 00:49:30;;;;;;;7.88;2.40;;;14.40;99.90;;;;;;4854180;29;20046;-77
2022/07/15 00:51:58;;;;;;;8.90;2.80;;;14.40;99.90;;;;;;4854361;29;20084;-73
2022/07/15 00:54:27;;;;;;;6.45;2.22;;;14.40;99.90;;;;;;4863079;29;20497;-75
2022/07/15 00:56:55;;;;;;;9.48;3.05;;;14.40;99.90;;;;;;4852233;29;20058;-76
2022/07/15 00:59:32;;;;;;;9.13;2.60;;;14.40;99.90;;;;;;4854664;29;20068;-78
2022/07/15 01:01:58;;;;;;;8.65;2.55;;;14.40;99.90;;;;;;4855799;29;20056;-77
2022/07/15 01:04:25;;;;;;;8.35;2.40;;;14.40;99.90;;;;;;4855086;29;20041;-76
2022/07/15 01:06:51;;;;;;;9.07;2.70;;;14.40;99.90;;;;;;4852329;29;20041;-74
2022/07/15 01:09:19;;;;;;;7.25;2.50;;;14.50;99.90;;;;;;4854927;29;20052;-78
2022/07/15 01:11:45;;;;;;;8.90;2.70;;;14.50;99.90;;;;;;4855507;29;20050;-76
2022/07/15 01:14:11;;;;;;;11.40;3.10;;;14.50;99.90;;;;;;4848267;29;20053;-76
2022/07/15 01:16:58;;;;;;;6.15;2.40;;;14.40;99.90;;;;;;4854053;29;20057;-77
2022/07/15 01:19:24;;;;;;;6.25;2.50;;;14.50;99.90;;;;;;4855274;29;21044;-76
2022/07/15 01:21:53;;;;;;;8.13;2.50;;;14.50;99.90;;;;;;4856065;29;20482;-76
2022/07/15 01:24:18;;;;;;;8.82;2.92;;;14.50;99.90;;;;;;4855071;29;20041;-78
2022/07/15 01:26:44;;;;;;;10.30;2.78;;;14.50;99.90;;;;;;4843184;29;20402;-76
2022/07/15 01:29:10;;;;;;;6.68;2.63;;;14.50;99.90;;;;;;4854356;29;20045;-76
2022/07/15 01:31:37;;;;;;;8.93;2.88;;;14.50;99.90;;;;;;4855029;29;20154;-76
2022/07/15 01:34:12;;;;;;;8.70;2.60;;;14.50;99.90;;;;;;4869451;29;20489;-76
2022/07/15 01:36:38;;;;;;;9.55;3.08;;;14.50;99.90;;;;;;4850786;29;20045;-77
2022/07/15 01:39:16;;;;;;;9.48;2.80;;;14.50;99.90;;;;;;4853266;29;20045;-75
2022/07/15 01:41:45;;;;;;;6.55;2.55;;;14.50;99.90;;;;;;4857561;29;20041;-78
2022/07/15 01:44:14;;;;;;;10.10;2.90;;;14.50;99.90;;;;;;4855023;29;20095;-75
2022/07/15 01:46:55;;;;;;;6.95;2.70;;;14.50;99.90;;;;;;4855030;29;20057;-76
2022/07/15 01:49:26;;;;;;;10.77;2.72;;;14.40;99.90;;;;;;4887502;29;20099;-75
2022/07/15 01:51:54;;;;;;;9.02;2.92;;;14.50;99.90;;;;;;4892647;29;20052;-77
2022/07/15 01:54:22;;;;;;;10.55;3.67;;;14.50;99.90;;;;;;4893935;29;20044;-76
2022/07/15 01:56:55;;;;;;;10.43;2.78;;;14.50;99.90;;;;;;4893157;29;20072;-77
2022/07/15 01:59:33;;;;;;;9.77;2.65;;;14.50;99.90;;;;;;4894934;29;20120;-75
2022/07/15 02:02:19;;;;;;;11.85;2.80;;;14.50;99.90;;;;;;4893866;29;20139;-76
2022/07/15 02:04:58;;;;;;;10.02;2.88;;;14.50;99.90;;;;;;4891412;29;20091;-76
2022/07/15 02:07:24;;;;;;;10.00;3.03;;;14.50;99.90;;;;;;4893664;29;20045;-75
2022/07/15 02:09:50;;;;;;;8.05;3.05;;;14.40;99.90;;;;;;4895489;29;20041;-76
2022/07/15 02:12:16;;;;;;;11.85;3.40;;;14.50;99.90;;;;;;4896073;29;20044;-75
2022/07/15 02:14:49;;;;;;;7.88;2.90;;;14.50;99.90;;;;;;4893207;29;20517;-75
2022/07/15 02:17:19;;;;;;;9.88;2.88;;;14.40;99.90;;;;;;4892704;29;20052;-75
2022/07/15 02:19:45;;;;;;;9.90;3.10;;;14.40;99.90;;;;;;4894513;29;20044;-76
2022/07/15 02:22:20;;;;;;;8.25;2.70;;;14.40;99.90;;;;;;4895423;29;20416;-76
2022/07/15 02:24:47;;;;;;;10.50;2.83;;;14.40;99.90;;;;;;4890834;29;20167;-75
2022/07/15 02:27:13;;;;;;;8.52;3.15;;;14.40;99.90;;;;;;4895548;29;20048;-76
2022/07/15 02:29:45;;;;;;;8.95;2.90;;;14.40;99.90;;;;;;4895549;29;20052;-76
2022/07/15 02:32:11;;;;;;;13.40;3.38;;;14.40;99.90;;;;;;4894354;29;20128;-76
2022/07/15 02:34:37;;;;;;;7.63;3.00;;;14.40;99.90;;;;;;4893670;29;20602;-75
2022/07/15 02:37:15;;;;;;;8.07;2.53;;;14.40;99.90;;;;;;4894070;29;20048;-76
2022/07/15 02:39:41;;;;;;;11.88;2.90;;;14.40;99.90;;;;;;4890041;29;20044;-77
2022/07/15 02:42:17;;;;;;;11.40;2.87;;;14.30;99.90;;;;;;4893831;29;20313;-76
2022/07/15 02:44:44;;;;;;;10.40;2.92;;;14.30;99.90;;;;;;4883181;29;20080;-77
2022/07/15 02:47:22;;;;;;;8.65;2.47;;;14.30;99.90;;;;;;4892534;29;20150;-77
2022/07/15 02:49:48;;;;;;;7.60;2.65;;;14.20;99.90;;;;;;4892437;29;20061;-77
2022/07/15 02:52:26;;;;;;;7.32;2.83;;;14.20;99.90;;;;;;4890639;29;20064;-76
2022/07/15 02:54:53;;;;;;;11.27;3.17;;;14.20;99.90;;;;;;4889220;29;20116;-76
2022/07/15 02:57:28;;;;;;;7.38;2.60;;;14.10;99.90;;;;;;4887862;29;20127;-77
2022/07/15 02:59:54;;;;;;;8.40;2.65;;;14.10;99.90;;;;;;4891255;29;20135;-77
2022/07/15 03:02:20;;;;;;;6.35;2.80;;;14.10;99.90;;;;;;4885261;29;20132;-77
2022/07/15 03:04:46;;;;;;;10.18;3.25;;;14.00;99.90;;;;;;4884292;29;20037;-74
2022/07/15 03:07:13;;;;;;;9.50;2.58;;;14.00;99.90;;;;;;4893002;29;20100;-75
2022/07/15 03:09:39;;;;;;;9.52;2.72;;;13.90;99.90;;;;;;4895628;29;20131;-78
2022/07/15 03:12:17;;;;;;;8.27;3.03;;;13.90;99.90;;;;;;4892662;29;20099;-77
2022/07/15 03:14:43;;;;;;;9.30;3.00;;;13.90;99.90;;;;;;4877499;29;20051;-78
2022/07/15 03:17:12;;;;;;;9.75;3.33;;;13.80;99.90;;;;;;4891567;29;20036;-77
2022/07/15 03:19:48;;;;;;;12.52;3.38;;;13.90;99.90;;;;;;4893844;29;20079;-78
2022/07/15 03:22:29;;;;;;;7.00;2.50;;;13.80;99.90;;;;;;4891060;29;20593;-75
2022/07/15 03:24:55;;;;;;;8.93;2.92;;;13.80;99.90;;;;;;4888636;29;20047;-74
2022/07/15 03:27:21;;;;;;;8.43;2.60;;;13.80;99.90;;;;;;4889643;29;20040;-74
2022/07/15 03:29:47;;;;;;;7.95;2.78;;;13.80;99.90;;;;;;4890053;29;20412;-79
2022/07/15 03:32:16;;;;;;;8.95;2.95;;;13.70;99.90;;;;;;4894267;29;20040;-78
2022/07/15 03:34:43;;;;;;;6.63;2.80;;;13.70;99.90;;;;;;4895051;29;20128;-79
2022/07/15 03:37:12;;;;;;;6.75;2.50;;;13.70;99.90;;;;;;4891863;29;20045;-78
2022/07/15 03:39:38;;;;;;;8.88;3.03;;;13.60;99.90;;;;;;4892113;29;20465;-77
2022/07/15 03:42:04;;;;;;;9.95;2.88;;;13.70;99.90;;;;;;4890783;29;20125;-76
2022/07/15 03:44:29;;;;;;;8.88;2.80;;;13.70;99.90;;;;;;4892109;29;20122;-78
2022/07/15 03:46:55;;;;;;;10.50;3.20;;;13.70;99.90;;;;;;4891429;29;20500;-76
2022/07/15 03:49:21;;;;;;;10.27;3.10;;;13.70;99.90;;;;;;4892666;29;20060;-76
2022/07/15 03:51:47;;;;;;;9.13;3.03;;;13.70;99.90;;;;;;4890265;29;20056;-75
2022/07/15 03:54:13;;;;;;;8.57;3.03;;;13.60;99.90;;;;;;4893774;29;20060;-78
2022/07/15 03:56:42;;;;;;;10.80;3.28;;;13.60;99.90;;;;;;4890066;29;20048;-76
2022/07/15 03:59:08;;;;;;;10.90;3.00;;;13.60;99.90;;;;;;4894019;29;20804;-78
2022/07/15 04:01:34;;;;;;;8.02;2.72;;;13.50;99.90;;;;;;4893788;29;20228;-75
2022/07/15 04:04:00;;;;;;;9.25;2.85;;;13.50;99.90;;;;;;4889328;29;20049;-77
2022/07/15 04:06:26;;;;;;;10.10;3.00;;;13.50;99.90;;;;;;4894862;29;20572;-78
2022/07/15 04:08:52;;;;;;;7.22;2.38;;;13.50;99.90;;;;;;4892125;29;20064;-74
2022/07/15 04:11:18;;;;;;;9.00;2.75;;;13.50;99.90;;;;;;4890490;29;20460;-75
2022/07/15 04:13:51;;;;;;;10.05;2.78;;;13.60;99.90;;;;;;4892387;29;20505;-76
2022/07/15 04:16:17;;;;;;;8.77;2.75;;;13.60;99.90;;;;;;4890747;29;20595;-75
2022/07/15 04:18:43;;;;;;;10.18;3.10;;;13.60;99.90;;;;;;4893001;29;20079;-76
2022/07/15 04:21:09;;;;;;;10.20;3.40;;;13.60;99.90;;;;;;4893327;29;20077;-76
2022/07/15 04:23:35;;;;;;;9.90;3.25;;;13.60;99.90;;;;;;4892875;29;20048;-76
2022/07/15 04:26:02;;;;;;;9.88;3.53;;;13.60;99.90;;;;;;4891162;29;20044;-74
2022/07/15 04:28:27;;;;;;;11.55;3.47;;;13.60;99.90;;;;;;4895258;29;20059;-76
2022/07/15 04:30:54;;;;;;;13.57;3.70;;;13.70;99.90;;;;;;4890136;29;20041;-77
2022/07/15 04:33:20;;;;;;;10.18;3.47;;;13.70;99.90;;;;;;4892212;29;20082;-75
2022/07/15 04:35:46;;;;;;;9.35;3.58;;;13.70;99.90;;;;;;4893163;29;20056;-78
2022/07/15 04:38:12;;;;;;;10.60;3.50;;;13.70;99.90;;;;;;4891597;29;20041;-75
2022/07/15 04:40:42;;;;;;;10.85;3.85;;;13.80;99.90;;;;;;4889337;29;20052;-74
2022/07/15 04:43:08;;;;;;;10.90;3.50;;;13.80;99.90;;;;;;4892956;29;20464;-78
2022/07/15 04:45:35;;;;;;;9.77;3.58;;;13.80;99.90;;;;;;4891306;29;20056;-72
2022/07/15 04:48:00;;;;;;;9.88;3.45;;;13.80;99.90;;;;;;4887116;29;20068;-73
2022/07/15 04:53:13;;;;;;;9.38;3.45;;;13.80;99.90;;;;;;4891773;29;20052;-73
2022/07/15 04:55:38;;;;;;;12.90;3.78;;;13.80;99.90;;;;;;4889953;29;20045;-73
2022/07/15 04:58:04;;;;;;;12.60;3.70;;;13.90;99.90;;;;;;4889876;29;20097;-72
2022/07/15 05:00:30;;;;;;;10.57;3.22;;;14.00;99.90;;;;;;4887607;29;20044;-72
2022/07/15 05:02:55;;;;;;;10.88;3.42;;;14.00;99.90;;;;;;4891942;29;20056;-73
2022/07/15 05:05:21;;;;;;;8.70;3.25;;;14.10;99.90;;;;;;4889722;29;20425;-73
2022/07/15 05:07:47;;;;;;;12.93;4.15;;;14.20;99.90;;;;;;4892255;29;20079;-74
2022/07/15 05:10:13;;;;;;;9.52;3.05;;;14.20;99.90;;;;;;4894805;29;20047;-74
2022/07/15 05:12:39;;;;;;;10.65;3.40;;;14.30;99.90;;;;;;4889476;29;20079;-72
2022/07/15 05:15:05;;;;;;;10.02;3.38;;;14.30;99.90;;;;;;4890520;29;20108;-73
2022/07/15 05:17:32;;;;;;;9.40;2.90;;;14.30;99.90;;;;;;4893182;29;20048;-73
2022/07/15 05:19:57;;;;;;;9.45;3.05;;;14.40;99.90;;;;;;4889622;29;20060;-73
2022/07/15 05:22:23;;;;;;;7.47;2.85;;;14.40;99.90;;;;;;4889538;29;20048;-72
2022/07/15 05:24:49;;;;;;;8.32;2.72;;;14.40;99.90;;;;;;4887181;29;20050;-73
2022/07/15 05:27:15;;;;;;;11.52;2.88;;;14.50;99.90;;;;;;4894192;29;20098;-72
2022/07/15 05:29:41;;;;;;;9.95;2.70;;;14.50;99.90;;;;;;4893038;29;20123;-73
2022/07/15 05:32:07;;;;;;;10.23;2.88;;;14.50;99.90;;;;;;4892331;29;20131;-72
2022/07/15 05:34:33;;;;;;;7.68;2.53;;;14.50;99.90;;;;;;4894347;29;20124;-72
2022/07/15 05:36:58;;;;;;;9.75;2.70;;;14.50;99.90;;;;;;4891384;29;20120;-72
2022/07/15 05:39:24;;;;;;;9.40;2.78;;;14.60;99.90;;;;;;4896046;29;20400;-72
2022/07/15 05:41:50;;;;;;;8.02;2.50;;;14.60;99.90;;;;;;4895891;29;20444;-72
2022/07/15 05:44:16;;;;;;;9.95;2.60;;;14.70;99.90;;;;;;4895507;29;22008;-72
2022/07/15 05:46:42;;;;;;;9.45;2.30;;;14.80;99.90;;;;;;4893131;29;20093;-72
2022/07/15 05:49:10;;;;;;;7.07;2.42;;;14.80;99.90;;;;;;4892231;29;20060;-73
2022/07/15 05:51:36;;;;;;;6.32;2.60;;;14.80;99.90;;;;;;4897454;29;20053;-72
2022/07/15 05:54:02;;;;;;;7.28;2.38;;;15.00;99.90;;;;;;4891715;29;20497;-72
2022/07/15 05:56:28;;;;;;;7.72;2.10;;;15.10;99.90;;;;;;4892053;29;20124;-72
2022/07/15 05:58:53;;;;;;;6.68;2.10;;;15.10;99.90;;;;;;4894264;29;20431;-73
2022/07/15 06:01:21;;;;;;;9.88;1.73;;;15.20;99.90;;;;;;4886928;29;20485;-71
2022/07/15 06:03:46;;;;;;;;;;;15.20;99.90;;;;;;4892405;29;20037;-72
2022/07/15 06:06:12;;;;;;;8.35;1.95;;;15.20;99.90;;;;;;4894415;29;20295;-72
2022/07/15 06:08:38;;;;;;;6.15;1.85;;;15.30;99.90;;;;;;4886416;29;20045;-72
2022/07/15 06:11:03;;;;;;;7.90;1.80;;;15.30;99.90;;;;;;4893620;29;20122;-72
2022/07/15 06:13:29;;;;;;;6.32;1.63;;;15.30;99.90;;;;;;4893928;29;20045;-72
2022/07/15 06:15:55;;;;;;;6.05;1.88;;;15.30;99.90;;;;;;4893925;29;20055;-72
2022/07/15 06:18:21;;;;;;;8.65;2.10;;;15.40;99.90;;;;;;4893727;29;20052;-71
2022/07/15 06:20:47;;;;;;;5.57;1.73;;;15.40;99.90;;;;;;4892404;29;20412;-71
2022/07/15 06:23:13;;;;;;;5.10;1.92;;;15.40;99.90;;;;;;4894913;29;20044;-72
2022/07/15 06:25:39;;;;;;;6.65;1.60;;;15.40;99.90;;;;;;4890845;29;20056;-72
2022/07/15 06:28:04;;;;;;;6.53;1.77;;;15.40;99.90;;;;;;4892461;29;20099;-72
2022/07/15 06:30:33;;;;;;;5.85;1.67;;;15.50;99.90;;;;;;4891828;29;20444;-72
2022/07/15 06:32:59;;;;;;;6.88;1.50;;;15.50;99.90;;;;;;4893939;29;20131;-72
2022/07/15 06:35:25;;;;;;;4.15;1.20;;;15.70;99.90;;;;;;4894769;29;20135;-72
2022/07/15 06:37:51;;;;;;;5.78;1.30;;;15.90;99.90;;;;;;4893708;29;20052;-72
2022/07/15 06:40:17;;;;;;;6.28;1.63;;;15.90;99.90;;;;;;4895670;29;20550;-72
2022/07/15 06:42:43;;;;;;;3.90;1.23;;;16.00;99.90;;;;;;4883773;29;20064;-72
2022/07/15 06:45:10;;;;;;;3.35;0.90;;;16.10;99.90;;;;;;4888658;29;20041;-72
2022/07/15 06:47:39;;;;;;;6.70;1.30;;;16.30;99.90;;;;;;4891584;29;20048;-72
2022/07/15 06:50:05;;;;;;;2.70;0.95;;;16.30;99.90;;;;;;4887252;29;20049;-72
2022/07/15 06:52:31;;;;;;;5.85;1.10;;;16.40;99.90;;;;;;4886753;29;20084;-72
2022/07/15 06:54:57;;;;;;;3.20;0.85;;;16.50;99.90;;;;;;4888881;29;20052;-72
2022/07/15 06:57:22;;;;;;;3.22;0.90;;;16.50;99.90;;;;;;4889635;29;20051;-72
2022/07/15 06:59:48;;;;;;;3.03;0.75;;;16.60;99.90;;;;;;4886528;29;20094;-72
2022/07/15 07:02:14;;;;;;;2.58;1.00;;;16.70;99.90;;;;;;4881862;29;20049;-72
2022/07/15 07:04:42;;;;;;;2.33;0.70;;;16.80;99.90;;;;;;4894465;29;20047;-72
2022/07/15 07:07:07;;;;;;;3.92;1.08;;;17.00;99.90;;;;;;4889488;29;20209;-69
2022/07/15 07:09:33;;;;;;;2.38;0.88;;;17.00;99.90;;;;;;4891794;29;20492;-71
2022/07/15 07:12:02;;;;;;;5.20;1.10;;;17.10;99.90;;;;;;4889260;29;20052;-72
2022/07/15 07:14:27;;;;;;;3.65;1.00;;;17.20;99.90;;;;;;4888772;29;20388;-71
2022/07/15 07:16:53;;;;;;;3.47;0.90;;;17.30;99.90;;;;;;4890350;29;20100;-74
2022/07/15 07:19:19;;;;;;;3.63;0.70;;;17.40;99.90;;;;;;4884521;29;20412;-72
2022/07/15 07:21:44;;;;;;;3.00;0.70;;;17.50;99.90;;;;;;4891729;29;20147;-72
2022/07/15 07:24:10;;;;;;;4.20;0.95;;;17.50;99.90;;;;;;4896698;29;20055;-75
2022/07/15 07:26:37;;;;;;;4.47;0.73;;;17.50;99.90;;;;;;4901177;29;20507;-74
2022/07/15 07:29:03;;;;;;;4.88;0.90;;;17.50;99.90;;;;;;4906554;29;20056;-75
2022/07/15 07:31:29;;;;;;;2.95;0.93;;;17.40;99.90;;;;;;4895455;29;20044;-74
2022/07/15 07:33:56;;;;;;;3.53;0.80;;;17.40;99.90;;;;;;4894038;29;20055;-74
2022/07/15 07:36:22;;;;;;;4.45;0.77;;;17.30;99.90;;;;;;4895214;29;20059;-75
2022/07/15 07:38:48;;;;;;;3.92;0.80;;;17.20;99.90;;;;;;4893966;29;20123;-74
2022/07/15 07:41:13;;;;;;;5.35;1.10;;;17.20;99.90;;;;;;4885780;29;20482;-75
2022/07/15 07:43:39;;;;;;;2.95;0.80;;;17.30;99.90;;;;;;4890453;29;20470;-72
2022/07/15 07:46:05;;;;;;;5.78;0.60;;;17.30;99.90;;;;;;4892996;29;20048;-74
2022/07/15 07:48:31;;;;;;;5.85;0.90;;;17.30;99.90;;;;;;4892539;29;20493;-74
2022/07/15 07:50:57;;;;;;;3.15;0.60;;;17.30;99.90;;;;;;4893010;29;20057;-73
2022/07/15 07:53:23;;;;;;;4.67;1.03;;;17.40;99.90;;;;;;4895171;29;20109;-74
2022/07/15 07:55:50;;;;;;;4.40;0.90;;;17.40;99.90;;;;;;4890471;29;20040;-72
2022/07/15 07:58:16;;;;;;;3.65;0.80;;;17.40;99.90;;;;;;4894222;29;20132;-73
2022/07/15 08:00:43;;;;;;;4.70;1.00;;;17.50;99.90;;;;;;4892451;29;20052;-72
2022/07/15 08:03:09;;;;;;;5.55;1.10;;;17.70;99.90;;;;;;4887117;29;20049;-72
2022/07/15 08:05:35;;;;;;;3.83;0.90;;;17.80;99.90;;;;;;4887098;29;20048;-72
2022/07/15 08:08:12;;;;;;;4.57;0.90;;;18.00;99.90;;;;;;4884435;29;20081;-71
2022/07/15 08:10:39;;;;;;;3.72;0.80;;;18.20;99.90;;;;;;4885536;29;20073;-70
2022/07/15 08:13:05;;;;;;;;;;;18.30;99.90;;;;;;4886310;29;20084;-71
2022/07/15 08:15:30;;;;;;;5.07;0.93;;;18.40;99.90;;;;;;4908704;29;19981;-71
2022/07/15 08:18:00;;;;;;;4.25;0.80;;;18.30;99.90;;;;;;4893389;29;20419;-70
2022/07/15 08:20:26;;;;;;;4.72;1.10;;;18.20;99.90;;;;;;4893516;29;20048;-72
2022/07/15 08:22:58;;;;;;;1.83;0.95;;;18.20;99.90;;;;;;4893982;29;20051;-72
2022/07/15 08:25:24;;;;;;;4.95;1.15;;;18.10;99.90;;;;;;4887381;29;20052;-72
2022/07/15 08:27:50;;;;;;;20.23;12.60;;;18.10;99.90;;;;;;4894264;29;20556;-72
2022/07/15 08:30:16;;;;;;;22.20;15.88;;;18.20;99.90;;;;;;4895750;29;20045;-72
2022/07/15 08:32:41;;;;;;;5.93;3.33;;;18.30;99.90;;;;;;4883443;29;20091;-72
2022/07/15 08:35:10;;;;;;;3.90;0.90;;;18.40;99.90;;;;;;4883270;29;20044;-71
2022/07/15 08:37:37;;;;;;;3.47;0.82;;;18.40;99.90;;;;;;4883135;29;20055;-71
2022/07/15 08:40:04;;;;;;;5.00;1.00;;;18.30;99.90;;;;;;4892397;29;20056;-70
2022/07/15 08:42:33;;;;;;;3.95;0.82;;;18.30;99.90;;;;;;4892920;29;20056;-71
2022/07/15 08:44:58;;;;;;;6.80;1.05;;;18.40;99.90;;;;;;4882616;29;20049;-70
2022/07/15 08:47:24;;;;;;;3.97;1.08;;;18.50;99.90;;;;;;4892594;29;20449;-71
2022/07/15 08:49:56;;;;;;;3.35;0.90;;;18.60;99.90;;;;;;4883541;29;20056;-71
2022/07/15 08:52:24;;;;;;;5.45;1.30;;;18.80;99.90;;;;;;4893337;29;20044;-71
2022/07/15 08:54:51;;;;;;;2.50;0.85;;;18.90;99.90;;;;;;4890641;29;20052;-72
2022/07/15 08:57:18;;;;;;;3.95;1.20;;;19.00;99.90;;;;;;4889470;29;20072;-71
2022/07/15 08:59:46;;;;;;;1.23;0.60;;;19.10;99.90;;;;;;4892091;29;20052;-70
2022/07/15 09:02:19;;;;;;;2.63;0.73;;;19.20;99.90;;;;;;4891640;29;20053;-71
2022/07/15 09:05:21;;;;;;;5.80;1.08;;;19.30;99.90;;;;;;4894012;29;20559;-71
2022/07/15 09:08:08;;;;;;;6.40;0.93;;;19.20;99.90;;;;;;4895320;29;20052;-71
2022/07/15 09:10:49;;;;;;;2.40;0.60;;;19.00;99.80;;;;;;4891012;29;20041;-72
2022/07/15 09:13:32;;;;;;;3.45;0.70;;;19.00;99.90;;;;;;4889846;29;20522;-71
2022/07/15 09:16:10;;;;;;;2.03;0.73;;;18.90;99.90;;;;;;4895440;29;20515;-72
2022/07/15 09:18:41;;;;;;;4.15;0.95;;;18.80;99.90;;;;;;4896550;29;20388;-72
2022/07/15 09:21:26;;;;;;;4.88;1.02;;;18.80;99.90;;;;;;4890028;29;20428;-71
2022/07/15 09:23:56;;;;;;;3.25;0.80;;;18.70;99.90;;;;;;4878429;29;20489;-72
2022/07/15 09:26:36;;;;;;;4.13;1.00;;;18.70;99.90;;;;;;4877981;29;20049;-72
2022/07/15 09:33:34;;;;;;;3.63;1.33;;;18.70;99.90;;;;;;4878504;29;20105;-71
2022/07/15 09:35:01;;;;;;;4.47;1.63;;;18.80;99.90;;;;;;4876908;29;20052;-72
2022/07/15 09:37:27;;;;;;;4.20;1.63;;;18.90;99.90;;;;;;4879444;29;20056;-72
2022/07/15 09:39:55;;;;;;;2.55;0.70;;;19.00;99.90;;;;;;4895671;29;20051;-71
2022/07/15 09:42:21;;;;;;;2.75;0.80;;;19.00;99.90;;;;;;4889423;29;20063;-71
2022/07/15 09:44:47;;;;;;;4.40;0.70;;;19.10;99.90;;;;;;4897186;29;20041;-71
2022/07/15 09:47:22;;;;;;;1.20;0.60;;;19.30;99.90;;;;;;4896333;29;20045;-71
2022/07/15 09:49:48;;;;;;;1.75;0.50;;;19.50;99.90;;;;;;4897066;29;20532;-71
2022/07/15 09:52:14;;;;;;;3.53;0.60;;;19.50;99.70;;;;;;4892996;29;20135;-71
2022/07/15 09:54:43;;;;;;;2.38;0.75;;;19.60;99.90;;;;;;4894691;29;20048;-71
2022/07/15 09:57:14;;;;;;;1.10;0.50;;;19.60;99.10;;;;;;4892349;29;20044;-71
2022/07/15 09:59:40;;;;;;;2.63;0.50;;;19.60;98.60;;;;;;4897664;29;20178;-71
2022/07/15 10:02:05;;;;;;;1.42;0.57;;;19.60;98.90;;;;;;4895626;29;20133;-72
2022/07/15 10:04:31;;;;;;;3.10;0.60;;;19.60;99.80;;;;;;4898045;29;20053;-71
2022/07/15 10:07:02;;;;;;;3.00;0.77;;;19.60;99.90;;;;;;4896537;29;20461;-72
2022/07/15 10:09:30;;;;;;;1.98;0.50;;;19.60;99.90;;;;;;4895706;29;20047;-72
2022/07/15 10:12:00;;;;;;;1.30;0.50;;;19.60;99.70;;;;;;4894592;29;20059;-72
2022/07/15 10:14:45;;;;;;;2.05;0.80;;;19.50;99.10;;;;;;4896506;29;20100;-71
2022/07/15 10:17:38;;;;;;;2.25;0.70;;;19.50;99.90;;;;;;4895182;29;20048;-73
2022/07/15 10:20:48;;;;;;;3.85;0.70;;;19.60;99.90;;;;;;4894877;29;20055;-75
2022/07/15 10:23:47;;;;;;;3.05;0.60;;;19.70;98.40;;;;;;4878669;29;20132;-74
2022/07/15 10:26:27;;;;;;;3.72;0.80;;;19.60;98.10;;;;;;4891287;29;20049;-73
2022/07/15 10:29:03;;;;;;;1.98;0.60;;;19.50;99.10;;;;;;4896272;29;20480;-72
2022/07/15 10:31:31;;;;;;;1.52;0.60;;;19.40;98.50;;;;;;4893318;29;20057;-73
2022/07/15 10:34:03;;;;;;;2.55;0.60;;;19.30;99.80;;;;;;4891272;29;20056;-72
2022/07/15 10:36:49;;;;;;;4.82;0.90;;;19.30;99.90;;;;;;4891828;29;20052;-74
2022/07/15 10:39:16;;;;;;;2.53;0.53;;;19.30;99.30;;;;;;4877905;29;20049;-73
2022/07/15 10:41:54;;;;;;;1.80;0.50;;;19.20;99.40;;;;;;4889527;29;20055;-73
2022/07/15 10:44:20;;;;;;;1.50;0.55;;;19.20;99.50;;;;;;4892706;29;20044;-74
2022/07/15 10:46:47;;;;;;;2.92;0.68;;;19.20;99.70;;;;;;4893946;29;20041;-72
2022/07/15 10:49:16;;;;;;;4.05;0.70;;;19.30;99.20;;;;;;4894810;29;20052;-72
2022/07/15 10:51:44;;;;;;;3.38;0.60;;;19.30;99.90;;;;;;4890396;29;20049;-72
2022/07/15 10:54:18;;;;;;;1.42;0.52;;;19.40;99.90;;;;;;4891484;29;20052;-72
2022/07/15 10:56:47;;;;;;;1.92;0.60;;;19.60;99.00;;;;;;4889771;29;20045;-73
2022/07/15 10:59:19;;;;;;;0.40;0.40;;;19.60;97.10;;;;;;4891774;29;20124;-71
2022/07/15 11:01:50;;;;;;;1.35;0.65;;;19.70;94.60;;;;;;4883796;29;20547;-73
2022/07/15 11:04:19;;;;;;;2.92;0.50;;;19.80;95.10;;;;;;4892834;29;20396;-72
2022/07/15 11:07:03;;;;;;;1.55;0.50;;;19.90;95.70;;;;;;4883494;29;20479;-72
2022/07/15 11:09:54;;;;;;;0.90;0.40;;;20.10;95.10;;;;;;4890611;29;20049;-73
2022/07/15 11:12:32;;;;;;;1.25;0.40;;;20.20;93.90;;;;;;4888306;29;20044;-73
2022/07/15 11:15:27;;;;;;;1.60;0.52;;;20.30;93.90;;;;;;4879280;29;20048;-73
2022/07/15 11:17:55;;;;;;;1.27;0.50;;;20.40;92.30;;;;;;4857767;29;20055;-73
2022/07/15 11:20:24;;;;;;;1.10;0.32;;;20.50;92.50;;;;;;4888618;29;20041;-73
2022/07/15 11:22:52;;;;;;;2.90;0.50;;;20.60;90.90;;;;;;4904210;29;20053;-72
2022/07/15 11:25:22;;;;;;;2.47;0.80;;;20.60;92.20;;;;;;4886241;29;20041;-72
2022/07/15 11:28:16;;;;;;;2.47;0.50;;;20.70;93.70;;;;;;4887852;29;20066;-72
2022/07/15 11:30:42;;;;;;;2.85;0.80;;;20.60;91.90;;;;;;4891592;29;20053;-75
2022/07/15 11:33:14;;;;;;;3.40;0.60;;;20.60;95.60;;;;;;4893811;29;20528;-75
2022/07/15 11:35:57;;;;;;;2.15;0.60;;;20.60;96.20;;;;;;4893667;29;20472;-72
2022/07/15 11:38:27;;;;;;;2.40;0.90;;;20.60;93.80;;;;;;4891802;29;20082;-72
2022/07/15 11:46:46;;;;;;;2.42;0.90;;;20.10;97.90;;;;;;4847662;29;20056;-74
2022/07/15 11:49:32;;;;;;;1.48;0.80;;;20.10;99.20;;;;;;4880313;29;20124;-74
2022/07/15 11:51:58;;;;;;;2.40;0.85;;;20.10;99.90;;;;;;4893496;29;20487;-73
2022/07/15 11:54:25;;;;;;;2.65;0.90;;;20.20;99.80;;;;;;4879443;29;20101;-73
2022/07/15 11:56:59;;;;;;;2.55;0.80;;;20.40;98.60;;;;;;4890582;29;20052;-73
2022/07/15 11:59:25;;;;;;;2.97;0.63;;;20.50;97.80;;;;;;4891182;29;20139;-73
2022/07/15 12:02:03;;;;;;;3.33;0.68;;;20.50;96.70;;;;;;4888525;29;20048;-74
2022/07/15 12:04:29;;;;;;;1.92;0.60;;;20.60;96.70;;;;;;4887013;29;20051;-73
2022/07/15 12:06:55;;;;;;;2.58;0.65;;;20.60;95.90;;;;;;4874886;29;20509;-73
2022/07/15 12:09:20;;;;;;;2.15;0.73;;;20.70;95.70;;;;;;4888640;29;20122;-73
2022/07/15 12:11:46;;;;;;;2.58;0.70;;;20.90;96.30;;;;;;4888281;29;20164;-73
2022/07/15 12:14:22;;;;;;;2.53;0.70;;;21.00;94.00;;;;;;4888491;29;20067;-74
2022/07/15 12:16:51;;;;;;;3.60;0.70;;;20.90;91.80;;;;;;4891802;29;20108;-73
2022/07/15 12:19:22;;;;;;;1.67;0.68;;;20.80;92.80;;;;;;4893472;29;20047;-73
2022/07/15 12:21:52;;;;;;;1.92;0.50;;;20.70;94.50;;;;;;4883690;29;20044;-73
2022/07/15 12:24:38;;;;;;;1.75;0.73;;;20.60;95.00;;;;;;4889478;29;20807;-73
2022/07/15 12:27:04;;;;;;;3.67;0.80;;;20.50;97.30;;;;;;4891442;29;20514;-71
2022/07/15 12:29:32;;;;;;;1.50;0.70;;;20.50;97.50;;;;;;4888856;29;20075;-72
2022/07/15 12:32:04;;;;;;;4.75;0.93;;;20.40;97.50;;;;;;4891361;29;20045;-72
2022/07/15 12:34:52;;;;;;;1.55;0.75;;;20.40;97.90;;;;;;4891533;29;20111;-72
2022/07/15 12:37:18;;;;;;;2.53;0.80;;;20.40;98.90;;;;;;4881539;29;20049;-72
2022/07/15 12:40:04;;;;;;;2.47;0.80;;;20.50;97.20;;;;;;4889523;29;20107;-72
2022/07/15 12:42:51;;;;;;;2.30;0.82;;;20.50;98.10;;;;;;4889292;29;20135;-72
2022/07/15 12:45:20;;;;;;;4.63;1.20;;;20.60;97.90;;;;;;4881129;29;20040;-72
2022/07/15 12:48:15;;;;;;;2.63;0.80;;;20.80;99.90;;;;;;4889258;29;20080;-72
2022/07/15 12:50:47;;;;;;;3.25;1.30;;;21.20;96.70;;;;;;4891929;29;20053;-71
2022/07/15 12:53:13;;;;;;;4.75;0.82;;;21.40;94.40;;;;;;4892351;29;20041;-72
2022/07/15 12:55:45;;;;;;;4.70;1.00;;;21.60;93.90;;;;;;4888011;29;20044;-72
2022/07/15 12:58:16;;;;;;;4.57;1.33;;;21.60;90.40;;;;;;4893555;29;20048;-72
2022/07/15 13:00:44;;;;;;;2.80;0.90;;;21.60;92.80;;;;;;4893431;29;20045;-72
2022/07/15 13:03:18;;;;;;;4.97;0.80;;;21.50;92.80;;;;;;4894212;29;20390;-73
2022/07/15 13:05:47;;;;;;;1.42;0.73;;;21.50;93.10;;;;;;4895175;29;20433;-72
2022/07/15 13:08:21;;;;;;;3.13;0.77;;;21.40;91.40;;;;;;4892129;29;20045;-72
2022/07/15 13:10:49;;;;;;;8.30;1.10;;;21.40;86.10;;;;;;4892214;29;20397;-73
2022/07/15 13:13:18;;;;;;;4.43;0.80;;;21.30;91.10;;;;;;4892326;29;20147;-72